Flight Track Log - Related Links

Times and Time Zones

All times are in EDT time to prevent confusion due to time zone crossing. See the SWA1787 flight status page for this flight to view local times or setup timezone preferences in your user account.

Time Position Orientation Groundspeed Altitude Reporting Facility
EDT Latitude Longitude Course Direction KTS MPH feet Rate Location/Type
Fri 12:42:38 PM 40.7369 -74.1233 242° Southwest 186 214 2,100  Level New York Center
Fri 12:43:36 PM 40.7714 -74.1578 323° Northwest 246 283 3,800 2,085 Climbing New York Center
Fri 12:44:36 PM 40.7808 -74.2653 277° West 278 320 6,200 2,876 Climbing New York Center
Fri 12:45:37 PM 40.7981 -74.3783 281° West 293 337 9,600 2,628 Climbing New York Center
Fri 12:46:37 PM 40.8139 -74.4725 283° West 303 349 11,500 2,479 Climbing New York Center
Fri 12:47:38 PM 40.8344 -74.6136 281° West 344 396 14,600 2,826 Climbing New York Center
Fri 12:48:00 PM 40.7800 -75.0200 242° Southwest  Level Estimated
Fri 12:48:38 PM 40.8536 -74.7297 282° West 366 421 17,200  Level New York Center
Fri 12:49:36 PM 40.8756 -74.8819 281° West 372 428 19,300 2,339 Climbing New York Center
Fri 12:50:36 PM 40.8911 -75.0258 278° West 384 442 21,800 2,182 Climbing New York Center
Fri 12:51:37 PM 40.8650 -75.1750 257° West 403 464 23,700 1,884 Climbing New York Center
Fri 12:52:37 PM 40.8361 -75.3322 256° West 417 480 25,600 1,800 Climbing New York Center
Fri 12:53:37 PM 40.8069 -75.4919 256° West 442 509 27,300 1,537 Climbing New York Center
Fri 12:54:38 PM 40.7753 -75.6542 256° West 456 525 28,700 1,438 Climbing New York Center
Fri 12:55:38 PM 40.7453 -75.8192 257° West 461 531 30,200 1,475 Climbing New York Center
Fri 12:56:36 PM 40.7133 -75.9839 256° West 466 536 31,600 1,412 Climbing New York Center
Fri 12:57:37 PM 40.6828 -76.1514 257° West 471 542 33,000 1,339 Climbing New York Center
Fri 12:58:37 PM 40.6753 -76.3147 267° West 452 520 34,300 1,289 Climbing New York Center
Fri 12:59:38 PM 40.6989 -76.4756 281° West 452 520 35,600 843 Climbing New York Center
Fri 01:00:38 PM 40.7244 -76.6367 282° West 452 520 36,000 203 Climbing New York Center
Fri 01:01:36 PM 40.7475 -76.7975 281° West 452 520 36,000  Level New York Center
Fri 01:02:36 PM 40.7686 -76.9556 280° West 452 520 36,000  Level New York Center
Fri 01:03:37 PM 40.7936 -77.1142 282° West 447 514 36,000  Level New York Center
Fri 01:04:37 PM 40.8164 -77.2697 281° West 447 514 36,000  Level New York Center
Fri 01:05:36 PM 40.8372 -77.4200 280° West 436 502 36,000  Level New York Center
Fri 01:07:40 PM 40.8792 -77.7267 280° West 432 497 36,000  Level Cleveland Center
Fri 01:08:42 PM 40.9000 -77.8819 280° West 434 499 36,000  Level Cleveland Center
Fri 01:09:44 PM 40.9261 -78.0653 281° West 427 491 36,000  Level Cleveland Center
Fri 01:10:46 PM 40.9444 -78.2217 279° West 431 496 36,000  Level Cleveland Center
Fri 01:11:48 PM 40.9631 -78.3742 279° West 432 497 36,000  Level Cleveland Center
Fri 01:12:51 PM 40.9794 -78.5303 278° West 440 506 36,000  Level Cleveland Center
Fri 01:13:53 PM 40.9983 -78.6889 279° West 440 506 36,000  Level Cleveland Center
Fri 01:14:55 PM 41.0219 -78.8753 280° West 434 499 36,000  Level Cleveland Center
Fri 01:15:57 PM 41.0397 -79.0303 279° West 430 495 36,000  Level Cleveland Center
Fri 01:16:59 PM 41.0569 -79.1861 278° West 430 495 36,000  Level Cleveland Center
Fri 01:18:01 PM 41.0756 -79.3433 279° West 435 501 36,000  Level Cleveland Center
Fri 01:19:03 PM 41.0922 -79.4992 278° West 432 497 36,000  Level Cleveland Center
Fri 01:20:05 PM 41.1092 -79.6553 278° West 432 497 36,000  Level Cleveland Center
Fri 01:21:07 PM 41.1289 -79.8267 279° West 430 495 36,000  Level Cleveland Center
Fri 01:22:09 PM 41.1475 -79.9989 278° West 431 496 36,000  Level Cleveland Center
Fri 01:23:11 PM 41.1642 -80.1547 278° West 430 495 36,000  Level Cleveland Center
Fri 01:24:14 PM 41.1811 -80.3111 278° West 431 496 36,000  Level Cleveland Center
Fri 01:25:16 PM 41.1981 -80.4767 278° West 430 495 36,000  Level Cleveland Center
Fri 01:26:18 PM 41.2133 -80.6344 277° West 429 494 36,000  Level Cleveland Center
Fri 01:27:20 PM 41.2322 -80.8175 278° West 426 490 36,000  Level Cleveland Center
Fri 01:28:22 PM 41.2472 -80.9756 277° West 428 493 36,000  Level Cleveland Center
Fri 01:29:24 PM 41.2622 -81.1317 277° West 425 489 36,000  Level Cleveland Center
Fri 01:30:26 PM 41.2778 -81.2878 278° West 424 488 36,000  Level Cleveland Center
Fri 01:31:28 PM 41.2939 -81.4589 277° West 425 489 36,000  Level Cleveland Center
Fri 01:32:30 PM 41.3083 -81.6136 277° West 424 488 36,000  Level Cleveland Center
Fri 01:33:32 PM 41.3219 -81.7694 277° West 426 490 36,000  Level Cleveland Center
Fri 01:34:34 PM 41.3361 -81.9258 277° West 427 491 36,000  Level Cleveland Center
Fri 01:35:36 PM 41.3500 -82.0819 277° West 427 491 36,000  Level Cleveland Center
Fri 01:36:39 PM 41.3625 -82.2458 276° West 425 489 36,000  Level Cleveland Center
Fri 01:37:41 PM 41.3722 -82.4303 274° West 425 489 36,000  Level Cleveland Center
Fri 01:38:43 PM 41.3817 -82.5878 275° West 424 488 36,000  Level Cleveland Center
Fri 01:39:45 PM 41.3900 -82.7456 274° West 423 487 36,000  Level Cleveland Center
Fri 01:40:47 PM 41.3989 -82.9017 274° West 422 486 36,000  Level Cleveland Center
Fri 01:41:49 PM 41.4072 -83.0581 274° West 420 483 36,000  Level Cleveland Center
Fri 01:42:51 PM 41.4161 -83.2206 274° West 420 483 36,000  Level Cleveland Center
Fri 01:43:53 PM 41.4236 -83.3758 274° West 421 484 36,000  Level Cleveland Center
Fri 01:44:55 PM 41.4306 -83.5297 273° West 416 479 36,000  Level Cleveland Center
Fri 01:45:57 PM 41.4378 -83.6861 274° West 421 484 36,000  Level Cleveland Center
Fri 01:46:59 PM 41.4472 -83.8706 274° West 417 480 36,000  Level Cleveland Center
Fri 01:48:01 PM 41.4533 -84.0247 273° West 415 478 36,000  Level Cleveland Center
Fri 01:49:04 PM 41.4600 -84.1786 273° West 415 478 36,000  Level Cleveland Center
Fri 01:50:06 PM 41.4667 -84.3214 274° West 414 476 36,000  Level Cleveland Center
Fri 01:51:08 PM 41.4742 -84.5025 273° West 409 471 36,000  Level Cleveland Center
Fri 01:52:10 PM 41.4808 -84.6533 273° West 408 470 36,000  Level Cleveland Center
Fri 01:53:12 PM 41.4867 -84.8053 273° West 410 472 36,000  Level Cleveland Center
Fri 01:54:14 PM 41.4919 -84.9575 273° West 411 473 36,000  Level Cleveland Center
Fri 01:55:16 PM 41.4972 -85.1097 273° West 410 472 36,000  Level Cleveland Center
Fri 01:56:18 PM 41.5017 -85.2647 272° West 414 476 36,000  Level Cleveland Center
Fri 01:57:20 PM 41.5039 -85.4244 271° West 419 482 36,000  Level Cleveland Center
Fri 01:58:22 PM 41.5114 -85.5853 274° West 424 488 36,000  Level Cleveland Center
Fri 01:59:24 PM 41.5161 -85.7414 272° West 421 484 36,000  Level Cleveland Center
Fri 02:00:26 PM 41.5219 -85.9250 272° West 415 478 36,000  Level Cleveland Center
Fri 02:01:29 PM 41.5258 -86.0775 272° West 412 474 36,000  Level Cleveland Center
Fri 02:02:31 PM 41.5286 -86.2303 271° West 412 474 36,000  Level Cleveland Center
Fri 02:03:33 PM 41.5306 -86.3819 271° West 411 473 36,000  Level Cleveland Center
Fri 02:04:48 PM 41.5333 -86.5644 271° West 414 476 36,000  Level Chicago Center
Fri 02:05:50 PM 41.5358 -86.7406 271° West 408 470 36,000  Level Chicago Center
Fri 02:06:52 PM 41.5392 -86.8931 272° West 411 473 36,000  Level Chicago Center
Fri 02:07:54 PM 41.5406 -87.0436 271° West 408 470 36,000  Level Chicago Center
Fri 02:08:57 PM 41.5408 -87.1939 270° West 404 465 36,000  Level Chicago Center
Fri 02:09:59 PM 41.5425 -87.3764 271° West 409 471 36,000  Level Chicago Center
Fri 02:11:01 PM 41.5436 -87.5256 271° West 405 466 36,000  Level Chicago Center
Fri 02:12:03 PM 41.5439 -87.6875 270° West 411 473 36,000  Level Chicago Center
Fri 02:13:05 PM 41.5456 -87.8258 271° West 406 467 36,000  Level Chicago Center
Fri 02:14:07 PM 41.5467 -88.0044 271° West 411 473 36,000  Level Chicago Center
Fri 02:15:09 PM 41.5478 -88.1522 271° West 413 475 36,000  Level Chicago Center
Fri 02:16:11 PM 41.5464 -88.3014 269° West 412 474 36,000  Level Chicago Center
Fri 02:17:13 PM 41.5467 -88.4508 270° West 408 470 36,000  Level Chicago Center
Fri 02:18:16 PM 41.5475 -88.6308 270° West 409 471 36,000  Level Chicago Center
Fri 02:19:18 PM 41.5481 -88.7808 270° West 408 470 36,000  Level Chicago Center
Fri 02:20:20 PM 41.5472 -88.9317 270° West 409 471 36,000  Level Chicago Center
Fri 02:21:22 PM 41.5481 -89.0817 270° West 408 470 36,000  Level Chicago Center
Fri 02:22:24 PM 41.5486 -89.2339 270° West 411 473 36,000  Level Chicago Center
Fri 02:23:26 PM 41.5483 -89.4144 270° West 410 472 36,000  Level Chicago Center
Fri 02:24:28 PM 41.5475 -89.5667 270° West 412 474 36,000  Level Chicago Center
Fri 02:25:30 PM 41.5467 -89.7278 270° West 413 475 36,000  Level Chicago Center
Fri 02:26:32 PM 41.5461 -89.8800 270° West 414 476 36,000  Level Chicago Center
Fri 02:27:34 PM 41.5458 -90.0325 270° West 413 475 36,000  Level Chicago Center
Fri 02:28:37 PM 41.5442 -90.1858 269° West 415 478 36,000  Level Chicago Center
Fri 02:29:39 PM 41.5408 -90.3425 268° West 423 487 36,000  Level Chicago Center
Fri 02:30:41 PM 41.5378 -90.5231 269° West 411 473 36,000  Level Chicago Center
Fri 02:31:43 PM 41.5367 -90.6519 269° West 410 472 36,000  Level Chicago Center
Fri 02:32:45 PM 41.5339 -90.8333 269° West 410 472 36,000  Level Chicago Center
Fri 02:33:47 PM 41.5319 -90.9817 269° West 406 467 36,000  Level Chicago Center
Fri 02:34:49 PM 41.5286 -91.1297 268° West 403 464 36,000  Level Chicago Center
Fri 02:35:51 PM 41.5269 -91.2792 269° West 405 466 36,000  Level Chicago Center
Fri 02:36:53 PM 41.5236 -91.4281 268° West 405 466 36,000  Level Chicago Center
Fri 02:37:55 PM 41.5192 -91.6053 268° West 402 463 36,000  Level Chicago Center
Fri 02:38:57 PM 41.5061 -91.7544 263° West 407 468 36,000  Level Chicago Center
Fri 02:39:59 PM 41.4919 -91.9011 263° West 403 464 36,000  Level Chicago Center
Fri 02:41:02 PM 41.4783 -92.0494 263° West 406 467 36,000  Level Chicago Center
Fri 02:42:04 PM 41.4633 -92.1972 262° West 406 467 36,000  Level Chicago Center
Fri 02:43:06 PM 41.4456 -92.3714 262° West 400 460 36,000  Level Chicago Center
Fri 02:44:08 PM 41.4333 -92.4992 263° West 402 463 36,000  Level Chicago Center
Fri 02:45:10 PM 41.4153 -92.6769 262° West 407 468 36,000  Level Chicago Center
Fri 02:46:12 PM 41.4003 -92.8214 262° West 400 460 36,000  Level Chicago Center
Fri 02:47:14 PM 41.3847 -92.9681 262° West 403 464 36,000  Level Chicago Center
Fri 02:48:16 PM 41.3692 -93.1133 262° West 402 463 36,000  Level Chicago Center
Fri 02:49:18 PM 41.3511 -93.2872 262° West 400 460 36,000  Level Chicago Center
Fri 02:50:20 PM 41.3350 -93.4314 262° West 398 458 36,000  Level Chicago Center
Fri 02:51:22 PM 41.3189 -93.5772 262° West 402 463 36,000  Level Chicago Center
Fri 02:52:25 PM 41.3025 -93.7222 261° West 401 461 36,000  Level Chicago Center
Fri 02:53:27 PM 41.2864 -93.8689 262° West 404 465 36,000  Level Chicago Center
Fri 02:54:29 PM 41.2672 -94.0433 262° West 403 464 36,000  Level Chicago Center
Fri 02:55:31 PM 41.2494 -94.1883 261° West 402 463 36,000  Level Chicago Center
Fri 02:56:33 PM 41.2331 -94.3328 261° West 400 460 36,000  Level Chicago Center
Fri 02:57:35 PM 41.2150 -94.4767 261° West 399 459 36,000  Level Chicago Center
Fri 02:59:04 PM 41.1925 -94.6903 262° West 394 453 36,000  Level Minneapolis Center
Fri 03:00:07 PM 41.1700 -94.8642 260° West 397 457 36,000  Level Minneapolis Center
Fri 03:01:09 PM 41.1517 -95.0067 260° West 394 453 36,000  Level Minneapolis Center
Fri 03:02:11 PM 41.1339 -95.1500 261° West 393 452 36,000  Level Minneapolis Center
Fri 03:03:13 PM 41.1164 -95.2936 261° West 393 452 36,000  Level Minneapolis Center
Fri 03:04:14 PM 41.0967 -95.4367 260° West 393 452 36,000  Level Minneapolis Center
Fri 03:05:16 PM 41.0786 -95.5806 261° West 393 452 36,000  Level Minneapolis Center
Fri 03:06:18 PM 41.0597 -95.7236 260° West 392 451 36,000  Level Minneapolis Center
Fri 03:07:20 PM 41.0408 -95.8675 260° West 393 452 36,000  Level Minneapolis Center
Fri 03:08:22 PM 41.0175 -96.0422 260° West 396 456 36,000  Level Minneapolis Center
Fri 03:09:24 PM 40.9989 -96.1872 260° West 397 457 36,000  Level Minneapolis Center
Fri 03:10:26 PM 40.9792 -96.3308 260° West 395 455 36,000  Level Minneapolis Center
Fri 03:11:28 PM 40.9603 -96.4750 260° West 395 455 36,000  Level Minneapolis Center
Fri 03:12:30 PM 40.9400 -96.6167 259° West 393 452 36,000  Level Minneapolis Center
Fri 03:13:32 PM 40.9200 -96.7592 260° West 393 452 36,000  Level Minneapolis Center
Fri 03:14:34 PM 40.8950 -96.8983 257° West 389 448 36,000  Level Minneapolis Center
Fri 03:15:36 PM 40.8689 -97.0358 256° West 389 448 36,000  Level Minneapolis Center
Fri 03:16:38 PM 40.8386 -97.2028 257° West 389 448 36,000  Level Minneapolis Center
Fri 03:17:40 PM 40.8128 -97.3394 256° West 385 443 36,000  Level Minneapolis Center
Fri 03:18:42 PM 40.7872 -97.4803 257° West 388 447 36,000  Level Minneapolis Center
Fri 03:19:44 PM 40.7611 -97.6178 256° West 386 444 36,000  Level Minneapolis Center
Fri 03:20:46 PM 40.7336 -97.7567 255° West 389 448 36,000  Level Minneapolis Center
Fri 03:21:48 PM 40.7086 -97.8936 257° West 386 444 36,000  Level Minneapolis Center
Fri 03:22:50 PM 40.6819 -98.0294 256° West 382 440 36,000  Level Minneapolis Center
Fri 03:23:52 PM 40.6503 -98.1939 256° West 384 442 36,000  Level Minneapolis Center
Fri 03:24:54 PM 40.6233 -98.3292 255° West 382 440 36,000  Level Minneapolis Center
Fri 03:26:25 PM 40.6108 -98.4953 264° West 394 453 36,000  Level Denver Center
Fri 03:26:58 PM 40.6194 -98.6100 276° West 393 452 36,000  Level Minneapolis Center
Fri 03:28:00 PM 40.6325 -98.7533 277° West 393 452 36,000  Level Minneapolis Center
Fri 03:29:02 PM 40.6458 -98.8972 277° West 393 452 36,000  Level Minneapolis Center
Fri 03:30:03 PM 40.6581 -99.0403 276° West 392 451 36,000  Level Minneapolis Center
Fri 03:30:33 PM 40.6661 -99.1264 277° West 392 451 36,000  Level Denver Center
Fri 03:31:35 PM 40.6778 -99.2708 276° West 393 452 36,000  Level Denver Center
Fri 03:32:37 PM 40.6900 -99.4147 276° West 395 455 36,000  Level Denver Center
Fri 03:33:39 PM 40.7014 -99.5589 276° West 394 453 36,000  Level Denver Center
Fri 03:34:41 PM 40.7128 -99.7036 276° West 396 456 36,000  Level Denver Center
Fri 03:35:43 PM 40.7261 -99.8622 276° West 396 456 36,000  Level Denver Center
Fri 03:36:57 PM 40.7383 -100.0228 276° West 395 455 36,000  Level Denver Center
Fri 03:38:12 PM 40.7506 -100.1847 276° West 398 458 36,000  Level Denver Center
Fri 03:39:14 PM 40.7653 -100.3681 276° West 394 453 36,000  Level Denver Center
Fri 03:40:16 PM 40.7753 -100.5064 275° West 395 455 36,000  Level Denver Center
Fri 03:41:18 PM 40.7836 -100.6433 275° West 390 449 36,000  Level Denver Center
Fri 03:42:20 PM 40.7611 -100.8044 260° West 381 438 36,000  Level Denver Center
Fri 03:43:22 PM 40.7364 -100.9594 258° West 382 440 36,000  Level Denver Center
Fri 03:44:24 PM 40.7153 -101.0889 258° West 379 436 36,000  Level Denver Center
Fri 03:45:27 PM 40.7036 -101.2219 263° West 381 438 36,000  Level Denver Center
Fri 03:46:29 PM 40.6922 -101.3794 265° West 385 443 36,000  Level Denver Center
Fri 03:47:31 PM 40.6811 -101.5133 264° West 385 443 36,000  Level Denver Center
Fri 03:48:33 PM 40.6694 -101.6689 264° West 383 441 36,000  Level Denver Center
Fri 03:49:35 PM 40.6583 -101.8017 264° West 382 440 36,000  Level Denver Center
Fri 03:50:37 PM 40.6453 -101.9581 264° West 386 444 36,000  Level Denver Center
Fri 03:51:39 PM 40.6344 -102.0922 264° West 385 443 36,000  Level Denver Center
Fri 03:52:41 PM 40.6219 -102.2489 264° West 386 444 36,000 -484 Level Denver Center
Fri 03:53:43 PM 40.6103 -102.3803 263° West 381 438 35,000 -968 Descending Denver Center
Fri 03:54:45 PM 40.5964 -102.5300 263° West 372 428 34,000 -484 Descending Denver Center
Fri 03:55:47 PM 40.5836 -102.6575 263° West 369 425 34,000  Level Denver Center
Fri 03:56:49 PM 40.5725 -102.7939 264° West 369 425 34,000  Level Denver Center
Fri 03:57:51 PM 40.5600 -102.9286 263° West 371 427 34,000 -194 Level Denver Center
Fri 03:58:53 PM 40.5478 -103.0661 263° West 377 434 33,600 -774 Descending Denver Center
Fri 03:59:55 PM 40.5311 -103.2344 263° West 386 444 32,400 -1,008 Descending Denver Center
Fri 04:00:58 PM 40.5181 -103.3761 263° West 391 450 31,500 -1,152 Descending Denver Center
Fri 04:02:00 PM 40.5050 -103.5131 263° West 384 442 30,000 -1,742 Descending Denver Center
Fri 04:03:02 PM 40.4928 -103.6442 263° West 368 423 27,900 -1,984 Descending Denver Center
Fri 04:04:04 PM 40.4806 -103.7706 263° West 355 409 25,900 -1,897 Descending Denver Center
Fri 04:05:18 PM 40.4403 -103.8908 246° West 335 386 23,600 -1,721 Descending Denver Center
Fri 04:06:20 PM 40.3681 -103.9897 226° Southwest 307 353 22,000 -1,597 Descending Denver Center
Fri 04:07:22 PM 40.3039 -104.0636 221° Southwest 287 330 20,300 -1,742 Descending Denver Center
Fri 04:08:24 PM 40.2383 -104.1344 220° Southwest 305 351 18,400 -1,488 Descending Denver Center
Fri 04:09:27 PM 40.1689 -104.2089 219° Southwest 300 345 17,200 -816 Descending Denver Center
Fri 04:10:29 PM 40.1058 -104.2783 220° Southwest 296 341 16,700 -1,210 Descending Denver Center
Fri 04:11:31 PM 40.0369 -104.3517 219° Southwest 295 339 14,700 -1,871 Descending Denver Center
Fri 04:12:02 PM 40.0000 -104.3833 213° Southwest 300 345 13,800 -1,121 Descending Denver TRACON
Fri 04:13:02 PM 39.9333 -104.4333 210° Southwest 272 313 13,000 -1,143 Descending Denver TRACON
Fri 04:14:08 PM 39.8667 -104.4833 210° Southwest 272 313 11,400 -952 Descending Denver TRACON
Fri 04:15:08 PM 39.8000 -104.5000 191° South 249 287 11,000 -264 Descending Denver TRACON
Fri 04:15:39 PM 39.7622 -104.5028 183° South 244 281 11,000 -387 Level Denver Center
Fri 04:16:41 PM 39.6925 -104.5031 180° South 233 268 10,400 -677 Descending Denver Center
Fri 04:17:43 PM 39.6267 -104.5044 181° South 236 272 9,600 -677 Descending Denver Center
Fri 04:18:45 PM 39.5603 -104.5056 181° South 239 275 9,000 -290 Descending Denver Center
Fri 04:19:47 PM 39.4900 -104.5156 186° South 235 270 9,000  Level Denver Center
Fri 04:20:49 PM 39.4719 -104.5806 250° West 212 244 9,000  Level Denver Center
Fri 04:21:52 PM 39.5189 -104.6325 320° Northwest 224 258 9,000  Level Denver Center
Fri 04:22:54 PM 39.5764 -104.6453 350° North 213 245 9,000  Level Denver Center
Fri 04:23:56 PM 39.6356 -104.6444 North 200 230 9,000 -387 Level Denver Center
Fri 04:24:58 PM 39.6883 -104.6431 North 193 222 8,200 -823 Descending Denver Center
Fri 04:26:00 PM 39.7369 -104.6428 360° North 175 201 7,300 -871 Descending Denver Center
Fri 04:27:02 PM 39.7817 -104.6425 360° North 151 174 6,400 -750 Descending Denver Center
Fri 04:28:16 PM 39.8219 -104.6419 North 146 168 5,600 -649 Descending Denver Center
Fri 04:30:00 PM 39.8500 -104.6667 North  Level FlightAware Approximate
Fri 04:37:00 PM 39.8617 -104.6732 North  Level Estimated

Login

Don't have an account? Register now (free) for customized features, flight alerts, and more!